createdAt,value
2023-09-27T00:00:59.898Z,1.899
2023-09-27T00:02:00.005Z,2
2023-09-27T00:02:57.619Z,2.099
2023-09-27T00:03:57.714Z,2
2023-09-27T00:04:58.674Z,2.200
2023-09-27T00:06:56.709Z,1.899
2023-09-27T00:07:56.229Z,2.200
2023-09-27T00:08:55.405Z,2.5
2023-09-27T00:09:53.561Z,1.899
2023-09-27T00:11:00.029Z,2
2023-09-27T00:11:56.939Z,2.200
2023-09-27T00:12:57.613Z,2.099
2023-09-27T00:13:56.425Z,2.200
2023-09-27T00:15:56.303Z,2.099
2023-09-27T00:16:54.982Z,1.899
2023-09-27T00:17:53.638Z,2.200
2023-09-27T00:18:52.195Z,2.099
2023-09-27T00:19:51.955Z,2.200
2023-09-27T00:21:55.007Z,2.099
2023-09-27T00:22:54.833Z,2.299
2023-09-27T00:23:54.840Z,2.200
2023-09-27T00:25:54.375Z,2
2023-09-27T00:27:54.021Z,2.099
2023-09-27T00:28:53.698Z,2.299
2023-09-27T00:29:54.192Z,2
2023-09-27T00:30:55.855Z,2.200
2023-09-27T00:31:55.103Z,2
2023-09-27T00:33:54.261Z,1.899
2023-09-27T00:35:54.835Z,2.099
2023-09-27T00:36:53.757Z,1.899
2023-09-27T00:38:53.948Z,2.200
2023-09-27T00:39:54.278Z,2
2023-09-27T00:40:57.959Z,2.200
2023-09-27T00:41:56.358Z,2
2023-09-27T00:42:55.274Z,2.299
2023-09-27T00:43:54.825Z,2
2023-09-27T00:44:54.298Z,1.899
2023-09-27T00:45:56.994Z,2
2023-09-27T00:47:55.806Z,2.099
2023-09-27T00:48:55.363Z,2.200
2023-09-27T00:49:54.437Z,2.099
2023-09-27T00:50:56.369Z,1.899
2023-09-27T00:53:54.074Z,2
2023-09-27T00:57:55.163Z,1.899
2023-09-27T00:58:53.559Z,2.200
2023-09-27T01:00:57.030Z,2
2023-09-27T01:02:55.816Z,2.099
2023-09-27T01:04:53.510Z,1.899
2023-09-27T01:05:54.658Z,2
2023-09-27T01:06:54.432Z,1.899
2023-09-27T01:07:54.108Z,2.099
2023-09-27T01:08:54.131Z,2.200
2023-09-27T01:09:54.452Z,2.099
2023-09-27T01:10:58.500Z,2.200
2023-09-27T01:12:54.903Z,2.299
2023-09-27T01:13:54.337Z,2.200
2023-09-27T01:14:55.554Z,2.099
2023-09-27T01:15:55.365Z,2.400
2023-09-27T01:16:56.785Z,2.099
2023-09-27T01:17:57.276Z,1.899
2023-09-27T01:18:58.432Z,2
2023-09-27T01:19:57.459Z,2.200
2023-09-27T01:21:02.717Z,2.099
2023-09-27T01:23:56.796Z,2.200
2023-09-27T01:24:57.634Z,2.099
2023-09-27T01:25:59.469Z,2.200
2023-09-27T01:26:59.210Z,2
2023-09-27T01:27:57.100Z,2.099
2023-09-27T01:28:58.734Z,1.899
2023-09-27T01:29:57.582Z,2.099
2023-09-27T01:30:58.326Z,2.299
2023-09-27T01:31:56.858Z,2
2023-09-27T01:32:56.290Z,2.099
2023-09-27T01:34:51.752Z,2
2023-09-27T01:35:51.382Z,1.799
2023-09-27T01:36:51.563Z,1.899
2023-09-27T01:37:52.262Z,2.099
2023-09-27T01:38:52.410Z,2
2023-09-27T01:39:52.268Z,2.099
2023-09-27T01:41:54.418Z,1.899
2023-09-27T01:44:52.798Z,2
2023-09-27T01:45:53.369Z,1.899
2023-09-27T01:46:53.528Z,2.299
2023-09-27T01:48:53.734Z,2.200
2023-09-27T01:51:53.381Z,1.899
2023-09-27T01:52:53.501Z,2.099
2023-09-27T01:54:52.813Z,2.200
2023-09-27T01:55:52.589Z,2.099
2023-09-27T01:56:52.895Z,2.200
2023-09-27T01:57:53.537Z,2.099
2023-09-27T01:58:54.622Z,2
2023-09-27T01:59:53.708Z,2.099
2023-09-27T02:00:55.838Z,2.200
2023-09-27T02:01:55.657Z,2.099
2023-09-27T02:02:55.324Z,1.799
2023-09-27T02:03:54.715Z,2
2023-09-27T02:04:55.858Z,2.200
2023-09-27T02:06:56.862Z,2.099
2023-09-27T02:07:57.601Z,2.200
2023-09-27T02:08:58.206Z,2.099
2023-09-27T02:11:00.374Z,2
2023-09-27T02:12:56.113Z,2.200
2023-09-27T02:13:55.637Z,2.099
2023-09-27T02:14:56.377Z,2.299
2023-09-27T02:15:56.119Z,2.099
2023-09-27T02:16:55.782Z,2
2023-09-27T02:17:55.461Z,2.099
2023-09-27T02:19:55.166Z,1.799
2023-09-27T02:20:58.379Z,2.200
2023-09-27T02:21:54.963Z,2.099
2023-09-27T02:22:54.958Z,1.899
2023-09-27T02:23:55.812Z,2.299
2023-09-27T02:24:54.917Z,2
2023-09-27T02:25:55.807Z,1.899
2023-09-27T02:26:55.838Z,2.200
2023-09-27T02:27:55.604Z,1.899
2023-09-27T02:29:55.753Z,2.099
2023-09-27T02:30:57.109Z,2
2023-09-27T02:31:54.381Z,2.299
2023-09-27T02:32:55.865Z,2.200
2023-09-27T02:36:56.626Z,2.400
2023-09-27T02:37:54.760Z,2
2023-09-27T02:39:55.885Z,2.099
2023-09-27T02:40:59.494Z,2.200
2023-09-27T02:41:57.867Z,2.299
2023-09-27T02:43:54.151Z,2.099
2023-09-27T02:44:55.841Z,2
2023-09-27T02:47:56.215Z,2.099
2023-09-27T02:48:55.372Z,2
2023-09-27T02:49:56.031Z,2.299
2023-09-27T02:50:57.432Z,2.099
2023-09-27T02:53:54.850Z,2.299
2023-09-27T02:54:56.055Z,2.200
2023-09-27T02:55:56.194Z,2.099
2023-09-27T02:57:57.008Z,1.799
2023-09-27T02:58:56.788Z,2.099
2023-09-27T02:59:56.632Z,2
2023-09-27T03:01:02.490Z,2.099
2023-09-27T03:01:54.118Z,2
2023-09-27T03:02:52.280Z,1.799
2023-09-27T03:03:48.935Z,2.299
2023-09-27T03:04:52.868Z,2
2023-09-27T03:05:55.033Z,1.799
2023-09-27T03:06:56.033Z,2.200
2023-09-27T03:07:56.789Z,1.899
2023-09-27T03:08:57.401Z,2.099
2023-09-27T03:09:57.349Z,2.299
2023-09-27T03:11:03.644Z,1.899
2023-09-27T03:11:57.401Z,2.099
2023-09-27T03:12:57.338Z,2.299
2023-09-27T03:13:51.753Z,2.200
2023-09-27T03:15:53.986Z,2.099
2023-09-27T03:16:54.172Z,2.200
2023-09-27T03:17:55.775Z,2
2023-09-27T03:21:00.556Z,1.899
2023-09-27T03:21:58.995Z,2.099
2023-09-27T03:22:56.571Z,2
2023-09-27T03:23:57.376Z,2.099
2023-09-27T03:24:57.575Z,2.299
2023-09-27T03:25:58.420Z,2.099
2023-09-27T03:27:57.940Z,1.899
2023-09-27T03:28:56.702Z,2.099
2023-09-27T03:29:54.626Z,2.5
2023-09-27T03:31:01.343Z,2.200
2023-09-27T03:32:00.437Z,2.099
2023-09-27T03:32:59.024Z,2
2023-09-27T03:33:57.466Z,2.099
2023-09-27T03:34:57.431Z,2.299
2023-09-27T03:35:58.001Z,2.099
2023-09-27T03:36:57.740Z,2.200
2023-09-27T03:37:55.240Z,2
2023-09-27T03:38:54.521Z,2.099
2023-09-27T03:40:59.536Z,2
2023-09-27T03:42:57.396Z,2.099
2023-09-27T03:46:01.902Z,2.200
2023-09-27T03:46:58.265Z,2.099
2023-09-27T03:47:59.254Z,2.200
2023-09-27T03:48:59.066Z,1.899
2023-09-27T03:49:57.980Z,2.200
2023-09-27T03:51:05.331Z,2.299
2023-09-27T03:51:57.622Z,2.200
2023-09-27T03:53:00.675Z,2.099
2023-09-27T03:54:59.251Z,2.5
2023-09-27T03:55:58.923Z,2
2023-09-27T03:56:58.854Z,1.899
2023-09-27T03:57:59.445Z,2.200
2023-09-27T03:58:59.539Z,2.099
2023-09-27T03:59:58.178Z,1.899
2023-09-27T04:01:58.522Z,2.200
2023-09-27T04:02:58.313Z,2
2023-09-27T04:04:00.349Z,2.099
2023-09-27T04:05:01.281Z,2
2023-09-27T04:06:01.644Z,2.200
2023-09-27T04:07:01.460Z,2
2023-09-27T04:09:55.387Z,2.099
2023-09-27T04:11:09.976Z,2
2023-09-27T04:12:02.204Z,2.299
2023-09-27T04:12:57.222Z,1.899
2023-09-27T04:14:00.857Z,2.200
2023-09-27T04:15:04.218Z,1.799
2023-09-27T04:15:56.130Z,2.200
2023-09-27T04:16:58.390Z,2.299
2023-09-27T04:17:55.360Z,2.099
2023-09-27T04:18:59.766Z,2
2023-09-27T04:19:59.413Z,1.899
2023-09-27T04:22:02.386Z,2.200
2023-09-27T04:22:55.764Z,2.099
2023-09-27T04:23:59.456Z,2
2023-09-27T04:25:01.765Z,1.899
2023-09-27T04:25:57.556Z,2.299
2023-09-27T04:26:59.332Z,2.200
2023-09-27T04:27:57.661Z,2.299
2023-09-27T04:28:59.325Z,2.200
2023-09-27T04:29:59.684Z,1.899
2023-09-27T04:31:05.786Z,2.200
2023-09-27T04:31:59.851Z,1.899
2023-09-27T04:33:02.960Z,2.299
2023-09-27T04:33:56.979Z,2.099
2023-09-27T04:34:59.146Z,2.200
2023-09-27T04:35:59.777Z,2.400
2023-09-27T04:36:59.699Z,2.200
2023-09-27T04:37:57.804Z,2
2023-09-27T04:38:57.689Z,2.099
2023-09-27T04:39:58.811Z,2.200
2023-09-27T04:41:05.208Z,2
2023-09-27T04:41:55.156Z,2.099
2023-09-27T04:42:56.697Z,2
2023-09-27T04:43:54.959Z,2.5
2023-09-27T04:44:57.978Z,2.400
2023-09-27T04:46:02.239Z,2.599
2023-09-27T04:46:54.638Z,2.299
2023-09-27T04:47:54.221Z,2.599
2023-09-27T04:48:54.333Z,2.099
2023-09-27T04:49:58.702Z,2.299
2023-09-27T04:51:01.352Z,2.5
2023-09-27T04:51:59.083Z,2.099
2023-09-27T04:52:58.503Z,2.200
2023-09-27T04:53:57.249Z,2.099
2023-09-27T04:54:58.985Z,2.200
2023-09-27T04:56:01.179Z,2.099
2023-09-27T04:57:58.166Z,2.299
2023-09-27T04:58:55.344Z,2.900
2023-09-27T04:59:58.397Z,2.400
2023-09-27T05:01:08.159Z,2.599
2023-09-27T05:02:00.210Z,2.700
2023-09-27T05:03:02.394Z,2.299
2023-09-27T05:03:54.032Z,2.5
2023-09-27T05:04:57.867Z,2.299
2023-09-27T05:06:00.511Z,2.400
2023-09-27T05:07:01.852Z,2.200
2023-09-27T05:07:53.709Z,2.099
2023-09-27T05:08:56.180Z,2.200
2023-09-27T05:09:55.919Z,2.099
2023-09-27T05:12:02.370Z,2.400
2023-09-27T05:12:59.439Z,2
2023-09-27T05:14:02.037Z,2.099
2023-09-27T05:16:03.610Z,2.299
2023-09-27T05:16:56.460Z,2
2023-09-27T05:17:59.888Z,2.099
2023-09-27T05:20:01.259Z,2
2023-09-27T05:21:08.273Z,1.799
2023-09-27T05:22:00.446Z,2.099
2023-09-27T05:23:54.022Z,1.899
2023-09-27T05:24:58.477Z,2.200
2023-09-27T05:25:59.014Z,2.099
2023-09-27T05:27:03.222Z,2.299
2023-09-27T05:29:02.171Z,2.200
2023-09-27T05:29:57.880Z,2
2023-09-27T05:31:09.953Z,2.299
2023-09-27T05:32:03.738Z,2.099
2023-09-27T05:33:58.085Z,2.299
2023-09-27T05:34:56.880Z,2.099
2023-09-27T05:35:58.365Z,2
2023-09-27T05:37:00.088Z,1.799
2023-09-27T05:38:00.429Z,1.899
2023-09-27T05:39:00.810Z,2
2023-09-27T05:40:00.644Z,2.099
2023-09-27T05:42:03.454Z,2
2023-09-27T05:43:59.049Z,2.200
2023-09-27T05:45:03.872Z,2.400
2023-09-27T05:45:59.949Z,2.5
2023-09-27T05:47:05.541Z,2.400
2023-09-27T05:47:57.567Z,2.299
2023-09-27T05:49:01.897Z,2.700
2023-09-27T05:49:59.951Z,2.400
2023-09-27T05:51:05.964Z,2.700
2023-09-27T05:51:58.541Z,2.5
2023-09-27T05:53:02.957Z,2.599
2023-09-27T05:53:55.577Z,2.400
2023-09-27T05:54:58.937Z,2.799
2023-09-27T05:56:00.784Z,2.700
2023-09-27T05:57:01.336Z,2.799
2023-09-27T05:58:00.814Z,2.700
2023-09-27T05:59:01.257Z,2.5
2023-09-27T05:59:57.713Z,2.599
2023-09-27T06:01:09.443Z,2.400
2023-09-27T06:02:58.456Z,2.299
2023-09-27T06:04:03.766Z,2.599
2023-09-27T06:04:56.368Z,2.400
2023-09-27T06:06:02.306Z,2.200
2023-09-27T06:06:57.663Z,2.299
2023-09-27T06:08:59.907Z,2.200
2023-09-27T06:12:00.340Z,2.099
2023-09-27T06:14:03.547Z,2
2023-09-27T06:15:00.982Z,2.099
2023-09-27T06:16:11.198Z,2.5
2023-09-27T06:17:56.346Z,2.400
2023-09-27T06:18:58.935Z,2.599
2023-09-27T06:20:01.103Z,2.299
2023-09-27T06:21:11.505Z,2.099
2023-09-27T06:24:00.701Z,2.200
2023-09-27T06:25:02.678Z,2.099
2023-09-27T06:27:05.820Z,2.200
2023-09-27T06:27:57.336Z,2.099
2023-09-27T06:29:02.708Z,2
2023-09-27T06:29:54.612Z,2.099
2023-09-27T06:31:04.709Z,2
2023-09-27T06:31:54.861Z,2.200
2023-09-27T06:33:01.041Z,2.5
2023-09-27T06:35:03.627Z,2.299
2023-09-27T06:35:59.025Z,2.700
2023-09-27T06:37:05.485Z,2.400
2023-09-27T06:37:57.667Z,2.299
2023-09-27T06:39:04.545Z,2.400
2023-09-27T06:39:58.625Z,2.5
2023-09-27T06:41:10.934Z,2.799
2023-09-27T06:42:02.491Z,2.700
2023-09-27T06:42:58.434Z,3.099
2023-09-27T06:44:03.534Z,2.700
2023-09-27T06:44:58.177Z,2.5
2023-09-27T06:46:09.272Z,2.299
2023-09-27T06:47:02.371Z,2.599
2023-09-27T06:47:57.623Z,2.400
2023-09-27T06:49:03.033Z,2.299
2023-09-27T06:49:57.021Z,2.200
2023-09-27T06:51:07.397Z,2.5
2023-09-27T06:52:00.218Z,1.899
2023-09-27T06:53:21.327Z,2.099
2023-09-27T06:54:05.743Z,2.299
2023-09-27T06:54:55.728Z,2.599
2023-09-27T06:56:04.349Z,2.700
2023-09-27T06:56:57.849Z,2.799
2023-09-27T06:58:00.439Z,3
2023-09-27T06:59:02.518Z,3.099
2023-09-27T06:59:55.867Z,3.299
2023-09-27T07:01:05.184Z,2.799
2023-09-27T07:01:55.010Z,3
2023-09-27T07:03:02.242Z,2.900
2023-09-27T07:03:54.826Z,3.099
2023-09-27T07:04:58.539Z,3.700
2023-09-27T07:06:05.572Z,3.599
2023-09-27T07:06:59.523Z,3.5
2023-09-27T07:08:08.336Z,3.400
2023-09-27T07:09:02.242Z,3.200
2023-09-27T07:09:55.775Z,3.099
2023-09-27T07:11:10.015Z,3.400
2023-09-27T07:12:07.975Z,3.099
2023-09-27T07:13:07.021Z,3.299
2023-09-27T07:15:09.308Z,3.5
2023-09-27T07:16:03.085Z,3.099
2023-09-27T07:17:01.837Z,3.299
2023-09-27T07:17:55.558Z,2.900
2023-09-27T07:19:04.175Z,3.299
2023-09-27T07:19:57.157Z,3.5
2023-09-27T07:21:08.641Z,2.900
2023-09-27T07:22:03.513Z,2.799
2023-09-27T07:22:57.731Z,2.700
2023-09-27T07:23:58.439Z,2.599
2023-09-27T07:25:02.001Z,2.700
2023-09-27T07:25:57.822Z,2.900
2023-09-27T07:27:02.452Z,3
2023-09-27T07:27:57.071Z,3.099
2023-09-27T07:29:01.744Z,2.799
2023-09-27T07:29:59.952Z,3
2023-09-27T07:31:09.360Z,2.700
2023-09-27T07:33:00.379Z,2.400
2023-09-27T07:34:05.938Z,2.599
2023-09-27T07:36:10.019Z,2.299
2023-09-27T07:37:02.450Z,2.599
2023-09-27T07:39:01.832Z,2.700
2023-09-27T07:39:56.326Z,2.400
2023-09-27T07:41:05.581Z,2.599
2023-09-27T07:41:57.882Z,2.299
2023-09-27T07:43:01.631Z,2.700
2023-09-27T07:44:03.426Z,2.099
2023-09-27T07:44:58.645Z,2.299
2023-09-27T07:46:11.697Z,2.5
2023-09-27T07:47:58.717Z,2.200
2023-09-27T07:49:04.351Z,2.5
2023-09-27T07:49:55.886Z,2.799
2023-09-27T07:51:03.578Z,2.5
2023-09-27T07:51:55.008Z,2.599
2023-09-27T07:52:59.397Z,2.5
2023-09-27T07:53:59.290Z,2.599
2023-09-27T07:55:02.125Z,2.400
2023-09-27T07:55:57.241Z,2.299
2023-09-27T07:57:02.073Z,2.5
2023-09-27T07:57:55.749Z,2.599
2023-09-27T08:00:00.639Z,2.5
2023-09-27T08:01:10.141Z,2.400
2023-09-27T08:02:02.599Z,2.299
2023-09-27T08:02:59.595Z,2.400
2023-09-27T08:04:02.866Z,2.799
2023-09-27T08:04:57.849Z,3
2023-09-27T08:06:11.224Z,2.799
2023-09-27T08:07:04.091Z,2.900
2023-09-27T08:07:59.589Z,2.700
2023-09-27T08:09:03.846Z,2.799
2023-09-27T08:09:55.381Z,3
2023-09-27T08:11:17.858Z,2.700
2023-09-27T08:13:14.102Z,2.799
2023-09-27T08:13:59.107Z,2.5
2023-09-27T08:15:19.633Z,2.700
2023-09-27T08:16:18.508Z,3
2023-09-27T08:17:05.418Z,2.599
2023-09-27T08:21:11.963Z,2.700
2023-09-27T08:22:57.085Z,3
2023-09-27T08:24:00.257Z,3.099
2023-09-27T08:25:04.729Z,2.799
2023-09-27T08:25:59.525Z,2.900
2023-09-27T08:27:08.515Z,2.599
2023-09-27T08:28:02.446Z,2.900
2023-09-27T08:28:57.540Z,2.700
2023-09-27T08:29:59.653Z,2.900
2023-09-27T08:31:08.588Z,3.200
2023-09-27T08:32:02.676Z,3
2023-09-27T08:32:57.996Z,2.700
2023-09-27T08:33:59.942Z,3.099
2023-09-27T08:36:00.857Z,3
2023-09-27T08:39:02.415Z,2.900
2023-09-27T08:41:18.899Z,3.200
2023-09-27T08:42:18.310Z,3
2023-09-27T08:43:14.804Z,3.200
2023-09-27T08:44:01.698Z,3.099
2023-09-27T08:45:16.458Z,3.400
2023-09-27T08:46:22.794Z,3.200
2023-09-27T08:47:14.572Z,3.400
2023-09-27T08:48:06.416Z,3.099
2023-09-27T08:49:08.799Z,3
2023-09-27T08:50:18.920Z,3.099
2023-09-27T08:51:19.610Z,3
2023-09-27T08:52:14.392Z,2.599
2023-09-27T08:53:03.433Z,2.799
2023-09-27T08:54:06.598Z,2.700
2023-09-27T08:55:02.754Z,2.599
2023-09-27T08:56:07.419Z,2.799
2023-09-27T08:57:13.897Z,2.400
2023-09-27T08:59:14.217Z,2.599
2023-09-27T09:00:10.701Z,2.900
2023-09-27T09:01:17.981Z,2.700
2023-09-27T09:02:13.674Z,2.599
2023-09-27T09:03:01.004Z,2.900
2023-09-27T09:04:18.523Z,2.700
2023-09-27T09:05:02.560Z,2.599
2023-09-27T09:06:07.747Z,2.799
2023-09-27T09:09:20.031Z,3.099
2023-09-27T09:10:12.696Z,2.900
2023-09-27T09:11:26.434Z,3.099
2023-09-27T09:12:31.735Z,3
2023-09-27T09:13:40.423Z,3.299
2023-09-27T09:14:39.905Z,2.900
2023-09-27T09:16:02.468Z,2.700
2023-09-27T09:18:43.221Z,2.599
2023-09-27T09:19:48.006Z,2.700
2023-09-27T09:20:15.635Z,2.599
2023-09-27T09:22:01.045Z,2.900
2023-09-27T09:22:20.367Z,2.799
2023-09-27T09:23:37.419Z,3.099
2023-09-27T09:24:38.664Z,3
2023-09-27T09:25:46.752Z,2.799
2023-09-27T09:26:56.244Z,2.900
2023-09-27T09:27:23.071Z,2.799
2023-09-27T09:29:01.387Z,2.799
2023-09-27T09:29:32.236Z,3
2023-09-27T09:30:33.273Z,2.5
2023-09-27T09:32:43.174Z,2.599
2023-09-27T09:34:50.184Z,2.400
2023-09-27T09:35:55.889Z,3
2023-09-27T09:36:33.123Z,2.400
2023-09-27T09:37:54.065Z,2.5
2023-09-27T09:38:54.530Z,2.299
2023-09-27T09:41:29.185Z,2.599
2023-09-27T09:41:55.964Z,2.5
2023-09-27T09:43:53.977Z,2.900
2023-09-27T09:45:27.202Z,2.5
2023-09-27T09:46:02.586Z,2.299
2023-09-27T09:46:23.283Z,2.599
2023-09-27T09:47:34.615Z,2.599
2023-09-27T09:48:54.155Z,2.5
2023-09-27T09:50:20.214Z,2.200
2023-09-27T09:50:30.130Z,2.5
2023-09-27T09:51:39.166Z,2.599
2023-09-27T09:52:55.031Z,2.400
2023-09-27T09:53:59.376Z,2.299
2023-09-27T09:54:26.898Z,2.799
2023-09-27T09:56:28.768Z,2.599
2023-09-27T09:56:37.952Z,2.299
2023-09-27T09:57:27.709Z,1.799
2023-09-27T09:58:37.457Z,2
2023-09-27T09:59:45.264Z,2.099
2023-09-27T10:00:57.560Z,2
2023-09-27T10:01:31.003Z,2.099
2023-09-27T10:02:53.989Z,1.700
2023-09-27T10:03:41.736Z,1.600
2023-09-27T10:04:47.509Z,1.700
2023-09-27T10:06:06.093Z,1.899
2023-09-27T10:06:24.242Z,1.700
2023-09-27T10:07:36.534Z,1.899
2023-09-27T10:08:47.322Z,2
2023-09-27T10:09:58.388Z,1.700
2023-09-27T10:10:30.383Z,1.799
2023-09-27T10:12:14.160Z,1.899
2023-09-27T10:12:40.193Z,1.700
2023-09-27T10:14:25.600Z,1.799
2023-09-27T10:14:54.400Z,1.899
2023-09-27T10:15:53.303Z,1.899
2023-09-27T10:18:01.397Z,1.700
2023-09-27T10:19:28.608Z,1.799
2023-09-27T10:20:04.610Z,1.700
2023-09-27T10:20:23.809Z,1.600
2023-09-27T10:21:39.131Z,1.799
2023-09-27T10:23:21.746Z,2.099
2023-09-27T10:23:51.584Z,1.600
2023-09-27T10:24:38.958Z,1.799
2023-09-27T10:30:10.560Z,1.899
2023-09-27T10:32:57.675Z,1.600
2023-09-27T10:34:20.944Z,1.799
2023-09-27T10:35:07.439Z,1.799
2023-09-27T10:35:26.577Z,2
2023-09-27T10:37:34.819Z,1.899
2023-09-27T10:38:46.867Z,1.700
2023-09-27T10:39:53.993Z,1.799
2023-09-27T10:41:07.991Z,1.899
2023-09-27T10:42:23.192Z,2
2023-09-27T10:42:25.284Z,1.799
2023-09-27T10:44:50.205Z,1.799
2023-09-27T10:46:22.300Z,2
2023-09-27T10:47:44.588Z,1.799
2023-09-27T10:49:55.422Z,1.899
2023-09-27T10:50:14.021Z,1.799
2023-09-27T10:52:15.290Z,1.700
2023-09-27T10:55:29.283Z,1.799
2023-09-27T10:57:34.899Z,1.899
2023-09-27T10:58:54.788Z,1.799
2023-09-27T11:00:30.756Z,1.700
2023-09-27T11:01:35.756Z,1.600
2023-09-27T11:02:51.468Z,1.700
2023-09-27T11:05:14.291Z,1.799
2023-09-27T11:06:13.389Z,1.899
2023-09-27T11:06:58.821Z,1.700
2023-09-27T11:08:10.025Z,1.799
2023-09-27T11:09:03.712Z,1.700
2023-09-27T11:09:57.694Z,1.600
2023-09-27T11:11:11.691Z,1.700
2023-09-27T11:12:08.449Z,1.799
2023-09-27T11:13:55.991Z,1.600
2023-09-27T11:16:57.777Z,1.899
2023-09-27T11:17:56.831Z,1.799
2023-09-27T11:18:58.952Z,1.600
2023-09-27T11:21:06.176Z,1.700
2023-09-27T11:22:00.254Z,1.799
2023-09-27T11:22:59.824Z,1.600
2023-09-27T11:23:57.930Z,1.5
2023-09-27T11:25:00.449Z,1.700
2023-09-27T11:27:00.529Z,1.899
2023-09-27T11:27:58.152Z,1.700
2023-09-27T11:34:02.658Z,1.799
2023-09-27T11:36:54.854Z,1.899
2023-09-27T11:39:00.014Z,1.799
2023-09-27T11:39:59.897Z,1.899
2023-09-27T11:41:11.180Z,1.700
2023-09-27T11:42:57.709Z,1.799
2023-09-27T11:43:59.762Z,1.899
2023-09-27T11:45:01.961Z,2
2023-09-27T11:45:58.469Z,1.700
2023-09-27T11:47:01.917Z,1.5
2023-09-27T11:47:56.441Z,1.799
2023-09-27T11:49:00.075Z,1.700
2023-09-27T11:49:59.125Z,1.899
2023-09-27T11:51:05.392Z,1.799
2023-09-27T11:53:02.821Z,1.700
2023-09-27T11:53:54.070Z,1.799
2023-09-27T11:55:00.387Z,2
2023-09-27T11:56:02.101Z,1.899
2023-09-27T11:56:56.671Z,1.799
2023-09-27T11:57:58.283Z,1.600
2023-09-27T12:00:00.373Z,1.700
2023-09-27T12:01:08.667Z,1.799
2023-09-27T12:02:57.857Z,1.600
2023-09-27T12:04:01.927Z,1.799
2023-09-27T12:04:57.108Z,1.700
2023-09-27T12:05:59.507Z,1.600
2023-09-27T12:06:59.848Z,1.899
2023-09-27T12:08:01.046Z,2.099
2023-09-27T12:09:05.705Z,2.200
2023-09-27T12:09:59.249Z,2.099
2023-09-27T12:12:59.100Z,1.899
2023-09-27T12:14:56.696Z,2
2023-09-27T12:16:00.228Z,2.099
2023-09-27T12:17:00.644Z,1.799
2023-09-27T12:17:59.597Z,2.299
2023-09-27T12:19:01.938Z,2
2023-09-27T12:19:54.798Z,2.099
2023-09-27T12:21:55.496Z,2.200
2023-09-27T12:22:57.876Z,2.099
2023-09-27T12:23:57.594Z,2.200
2023-09-27T12:24:59.737Z,2.099
2023-09-27T12:26:03.164Z,1.899
2023-09-27T12:26:57.599Z,2.099
2023-09-27T12:27:59.675Z,2
2023-09-27T12:29:01.666Z,1.899
2023-09-27T12:29:58.628Z,2.099
2023-09-27T12:31:03.860Z,2.200
2023-09-27T12:31:57.249Z,2.299
2023-09-27T12:33:03.355Z,2.099
2023-09-27T12:33:54.276Z,2.200
2023-09-27T12:34:58.992Z,2.799
2023-09-27T12:36:01.036Z,2.700
2023-09-27T12:37:02.369Z,2.299
2023-09-27T12:39:02.780Z,2.099
2023-09-27T12:41:57.695Z,2.200
2023-09-27T12:43:00.690Z,2.099
2023-09-27T12:44:01.053Z,2.200
2023-09-27T12:45:57.715Z,1.899
2023-09-27T12:47:00.774Z,2.099
2023-09-27T12:47:59.437Z,1.899
2023-09-27T12:49:00.011Z,2
2023-09-27T12:50:01.642Z,2.099
2023-09-27T12:51:00.639Z,2
2023-09-27T12:52:04.091Z,1.799
2023-09-27T12:52:58.269Z,2
2023-09-27T12:54:02.637Z,2.099
2023-09-27T12:54:55.686Z,2.400
2023-09-27T12:56:02.514Z,2.299
2023-09-27T12:56:56.131Z,2.099
2023-09-27T12:57:59.767Z,2.400
2023-09-27T12:59:01.460Z,2.299
2023-09-27T13:00:02.406Z,2.200
2023-09-27T13:01:00.914Z,2.099
2023-09-27T13:02:06.564Z,2
2023-09-27T13:03:01.664Z,1.899
2023-09-27T13:04:01.824Z,2.200
2023-09-27T13:06:01.907Z,2
2023-09-27T13:06:56.186Z,2.099
2023-09-27T13:08:00.890Z,2.200
2023-09-27T13:09:05.364Z,2
2023-09-27T13:11:18.455Z,2.099
2023-09-27T13:12:11.973Z,2.200
2023-09-27T13:13:14.721Z,2.099
2023-09-27T13:15:12.414Z,2.200
2023-09-27T13:16:10.471Z,1.799
2023-09-27T13:16:58.788Z,2.299
2023-09-27T13:18:07.812Z,2.200
2023-09-27T13:19:00.383Z,1.899
2023-09-27T13:20:03.198Z,2
2023-09-27T13:20:59.533Z,2.400
2023-09-27T13:22:06.455Z,2.099
2023-09-27T13:22:59.111Z,2
2023-09-27T13:24:00.398Z,2.099
2023-09-27T13:25:04.660Z,1.899
2023-09-27T13:26:01.569Z,1.799
2023-09-27T13:27:14.891Z,1.899
2023-09-27T13:28:09.214Z,1.600
2023-09-27T13:29:05.406Z,1.899
2023-09-27T13:29:58.685Z,1.799
2023-09-27T13:33:10.527Z,1.899
2023-09-27T13:34:08.048Z,1.700
2023-09-27T13:34:56.955Z,2
2023-09-27T13:36:02.443Z,1.5
2023-09-27T13:36:56.085Z,1.799
2023-09-27T13:37:57.759Z,1.700
2023-09-27T13:38:58.070Z,1.600
2023-09-27T13:39:59.931Z,1.700
2023-09-27T13:42:05.246Z,1.799
2023-09-27T13:42:56.252Z,1.899
2023-09-27T13:44:02.143Z,1.700
2023-09-27T13:44:57.644Z,1.600
2023-09-27T13:47:04.363Z,2.099
2023-09-27T13:47:56.531Z,1.899
2023-09-27T13:49:01.420Z,1.700
2023-09-27T13:49:59.989Z,2
2023-09-27T13:51:05.081Z,1.899
2023-09-27T13:51:55.853Z,1.5
2023-09-27T13:53:00.990Z,1.700
2023-09-27T13:53:58.017Z,1.600
2023-09-27T13:54:58.885Z,1.799
2023-09-27T13:56:57.011Z,1.700
2023-09-27T13:57:59.450Z,1.899
2023-09-27T13:58:58.712Z,1.799
2023-09-27T13:59:59.576Z,1.899
2023-09-27T14:01:07.808Z,1.700
2023-09-27T14:02:01.206Z,1.799
2023-09-27T14:04:59.797Z,1.700
2023-09-27T14:06:56.603Z,1.799
2023-09-27T14:09:02.576Z,2
2023-09-27T14:09:57.221Z,1.799
2023-09-27T14:11:18.584Z,1.899
2023-09-27T14:12:19.231Z,1.600
2023-09-27T14:13:10.447Z,1.899
2023-09-27T14:14:11.189Z,1.799
2023-09-27T14:15:22.496Z,1.700
2023-09-27T14:17:14.849Z,1.600
2023-09-27T14:19:13.038Z,1.700
2023-09-27T14:20:08.080Z,1.799
2023-09-27T14:21:13.750Z,1.700
2023-09-27T14:21:59.013Z,1.799
2023-09-27T14:26:09.418Z,2
2023-09-27T14:27:57.086Z,1.700
2023-09-27T14:29:07.004Z,1.600
2023-09-27T14:30:02.178Z,1.799
2023-09-27T14:31:57.354Z,1.5
2023-09-27T14:33:07.653Z,1.700
2023-09-27T14:34:02.426Z,1.899
2023-09-27T14:34:57.739Z,1.700
2023-09-27T14:36:09.291Z,1.799
2023-09-27T14:37:08.042Z,1.899
2023-09-27T14:39:13.029Z,1.600
2023-09-27T14:40:10.236Z,1.799
2023-09-27T14:41:11.119Z,1.899
2023-09-27T14:42:21.223Z,1.799
2023-09-27T14:43:26.027Z,1.899
2023-09-27T14:44:17.749Z,1.700
2023-09-27T14:46:10.177Z,1.799
2023-09-27T14:47:25.742Z,2.099
2023-09-27T14:48:28.661Z,1.799
2023-09-27T14:49:08.946Z,1.700
2023-09-27T14:52:52.746Z,1.899
2023-09-27T14:53:00.832Z,1.799
2023-09-27T14:54:54.646Z,1.799
2023-09-27T14:56:54.211Z,1.799
2023-09-27T14:57:06.960Z,2
2023-09-27T14:58:56.575Z,1.799
2023-09-27T14:59:01.805Z,1.700
2023-09-27T15:01:00.772Z,1.799
2023-09-27T15:01:08.529Z,1.700
2023-09-27T15:03:01.601Z,1.799
2023-09-27T15:03:14.451Z,1.700
2023-09-27T15:09:48.148Z,1.899
2023-09-27T15:11:24.577Z,1.799
2023-09-27T15:13:52.352Z,1.600
2023-09-27T15:15:22.892Z,1.899
2023-09-27T15:16:35.362Z,1.899
2023-09-27T15:17:09.522Z,1.600
2023-09-27T15:17:45.123Z,1.799
2023-09-27T15:19:20.025Z,1.5
2023-09-27T15:21:06.734Z,2
2023-09-27T15:21:12.956Z,1.700
2023-09-27T15:21:40.402Z,1.600
2023-09-27T15:23:51.841Z,1.899
2023-09-27T15:23:53.838Z,2
2023-09-27T15:24:55.846Z,1.799
2023-09-27T15:26:23.581Z,1.899
2023-09-27T15:28:02.854Z,1.600
2023-09-27T15:28:03.660Z,1.799
2023-09-27T15:28:31.722Z,1.700
2023-09-27T15:30:39.492Z,1.799
2023-09-27T15:31:14.566Z,1.700
2023-09-27T15:32:15.513Z,1.799
2023-09-27T15:33:15.651Z,1.899
2023-09-27T15:33:39.378Z,1.799
2023-09-27T15:35:10.207Z,1.899
2023-09-27T15:36:37.457Z,2
2023-09-27T15:38:06.406Z,1.700
2023-09-27T15:38:34.042Z,1.899
2023-09-27T15:40:56.096Z,1.600
2023-09-27T15:41:52.539Z,1.799
2023-09-27T15:43:48.206Z,2.099
2023-09-27T15:44:42.556Z,1.700
2023-09-27T15:45:49.898Z,1.799
2023-09-27T15:46:22.893Z,1.700
2023-09-27T15:47:56.201Z,1.700
2023-09-27T15:48:16.253Z,1.600
2023-09-27T15:49:54.125Z,1.5
2023-09-27T15:49:55.820Z,1.799
2023-09-27T15:52:01.040Z,1.899
2023-09-27T15:53:57.196Z,1.799
2023-09-27T15:55:54.683Z,1.899
2023-09-27T15:55:54.769Z,1.700
2023-09-27T15:57:49.181Z,1.700
2023-09-27T15:58:04.339Z,1.600
2023-09-27T15:59:29.479Z,1.899
2023-09-27T16:00:43.490Z,1.799
2023-09-27T16:02:23.609Z,1.600
2023-09-27T16:03:30.772Z,1.899
2023-09-27T16:04:51.848Z,1.799
2023-09-27T16:04:54.406Z,1.600
2023-09-27T16:06:50.931Z,2
2023-09-27T16:06:51.605Z,1.700
2023-09-27T16:08:23.745Z,1.799